Time;durP1;ratioP1;P1;durP2;ratioP2;P2;SDS_P1;SDS_P2;PMS_P1;PMS_P2;Temp;Humidity;BMP_temperature;BMP_pressure;BME280_temperature;BME280_humidity;BME280_pressure;Samples;Min_cycle;Max_cycle;Signal;HPM_P1;HPM_P2
2023/10/11 00:00:24;;;;;;;;;;;;;;;13.10;100.00;100746.38;5107823;28;19930;-75
2023/10/11 00:03:32;;;;;;;;;;;;;;;13.08;100.00;100739.44;5109083;28;19922;-75
2023/10/11 00:06:17;;;;;;;;;;;;;;;13.10;100.00;100738.00;5115723;28;20422;-75
2023/10/11 00:09:02;;;;;;;;;;;;;;;13.15;100.00;100742.69;5096820;28;19915;-75
2023/10/11 00:11:45;;;;;;;;;;;;;;;13.15;100.00;100746.28;5096902;28;19915;-75
2023/10/11 00:14:39;;;;;;;;;;;;;;;13.21;100.00;100735.06;5115853;28;19927;-75
2023/10/11 00:17:23;;;;;;;;;;;;;;;13.23;100.00;100739.16;5106361;28;20619;-75
2023/10/11 00:20:19;;;;;;;;;;;;;;;13.29;100.00;100745.50;5120469;28;19946;-75
2023/10/11 00:23:03;;;;;;;;;;;;;;;13.29;100.00;100737.13;5093673;28;19914;-75
2023/10/11 00:25:50;;;;;;;;;;;;;;;13.33;100.00;100741.81;5091915;28;19915;-75
2023/10/11 00:28:36;;;;;;;;;;;;;;;13.39;100.00;100728.59;5110293;28;19918;-75
2023/10/11 00:31:21;;;;;;;;;;;;;;;13.40;100.00;100719.94;5084022;28;19988;-75
2023/10/11 00:34:10;;;;;;;;;;;;;;;13.44;100.00;100722.91;5118955;28;19973;-75
2023/10/11 00:36:54;;;;;;;;;;;;;;;13.50;100.00;100732.84;5111713;28;20382;-75
2023/10/11 00:39:38;;;;;;;;;;;;;;;13.48;100.00;100735.09;5084793;28;19931;-75
2023/10/11 00:42:23;;;;;;;;;;;;;;;13.53;100.00;100742.56;5098000;28;19914;-75
2023/10/11 00:45:09;;;;;;;;;;;;;;;13.63;100.00;100757.16;5115218;28;19922;-75
2023/10/11 00:47:55;;;;;;;;;;;;;;;13.62;100.00;100747.13;5120412;28;20002;-75
2023/10/11 00:50:39;;;;;;;;;;;;;;;13.63;100.00;100746.00;5095676;28;19918;-75
2023/10/11 00:53:26;;;;;;;;;;;;;;;13.68;100.00;100755.38;5102090;28;19954;-75
2023/10/11 00:56:10;;;;;;;;;;;;;;;13.71;100.00;100763.16;5102428;28;19973;-75
2023/10/11 00:58:55;;;;;;;;;;;;;;;13.77;100.00;100756.34;5107324;28;19969;-75
2023/10/11 01:01:39;;;;;;;;;;;;;;;13.79;100.00;100745.66;5107679;28;19915;-74
2023/10/11 01:04:27;;;;;;;;;;;;;;;13.81;100.00;100748.97;5091002;28;19918;-75
2023/10/11 01:07:11;;;;;;;;;;;;;;;13.84;100.00;100753.94;5094554;28;20371;-75
2023/10/11 01:09:56;;;;;;;;;;;;;;;13.88;100.00;100756.97;5118717;28;19946;-75
2023/10/11 01:12:40;;;;;;;;;;;;;;;13.90;100.00;100746.28;5099042;28;19965;-75
2023/10/11 01:15:24;;;;;;;;;;;;;;;13.92;100.00;100736.47;5108235;28;19942;-75
2023/10/11 01:18:08;;;;;;;;;;;;;;;13.93;100.00;100718.59;5097421;28;19918;-75
2023/10/11 01:20:53;;;;;;;;;;;;;;;13.95;100.00;100715.47;5095847;28;20324;-75
2023/10/11 01:23:37;;;;;;;;;;;;;;;13.99;100.00;100708.16;5095634;28;19956;-75
2023/10/11 01:26:21;;;;;;;;;;;;;;;14.02;100.00;100708.34;5093689;28;19957;-75
2023/10/11 01:29:05;;;;;;;;;;;;;;;14.03;100.00;100711.94;5107253;28;20272;-75
2023/10/11 01:31:50;;;;;;;;;;;;;;;14.05;100.00;100687.34;5116052;27;19915;-75
2023/10/11 01:34:34;;;;;;;;;;;;;;;14.10;100.00;100695.63;5080548;28;19918;-75
2023/10/11 01:37:18;;;;;;;;;;;;;;;14.09;100.00;100697.56;5095252;28;20320;-75
2023/10/11 01:40:07;;;;;;;;;;;;;;;14.13;100.00;100702.53;5097989;28;19965;-75
2023/10/11 01:42:51;;;;;;;;;;;;;;;14.16;100.00;100707.50;5102265;28;19922;-75
2023/10/11 01:45:38;;;;;;;;;;;;;;;14.18;100.00;100724.75;5097756;28;19915;-75
2023/10/11 01:48:22;;;;;;;;;;;;;;;14.22;100.00;100720.22;5097482;28;19915;-75
2023/10/11 01:51:09;;;;;;;;;;;;;;;14.22;100.00;100711.81;5077593;28;19915;-75
2023/10/11 01:53:57;;;;;;;;;;;;;;;14.22;100.00;100714.63;5070998;28;19919;-75
2023/10/11 01:56:41;;;;;;;;;;;;;;;14.28;100.00;100716.16;5097475;28;19957;-75
2023/10/11 01:59:25;;;;;;;;;;;;;;;14.24;100.00;100718.75;5097427;28;20003;-75
2023/10/11 02:02:10;;;;;;;;;;;;;;;14.27;100.00;100717.31;5070897;28;19961;-75
2023/10/11 02:04:59;;;;;;;;;;;;;;;14.29;100.00;100706.63;5082898;28;19958;-75
2023/10/11 02:07:44;;;;;;;;;;;;;;;14.29;100.00;100696.28;5097217;28;19958;-75
2023/10/11 02:10:28;;;;;;;;;;;;;;;14.30;100.00;100686.75;5083254;28;19914;-75
2023/10/11 02:13:12;;;;;;;;;;;;;;;14.30;100.00;100688.72;5082843;28;19927;-75
2023/10/11 02:16:00;;;;;;;;;;;;;;;14.29;100.00;100687.06;5097400;28;19918;-75
2023/10/11 02:18:49;;;;;;;;;;;;;;;14.33;100.00;100681.69;5098135;28;19915;-75
2023/10/11 02:21:36;;;;;;;;;;;;;;;14.33;100.00;100696.47;5071843;28;19915;-75
2023/10/11 02:24:20;;;;;;;;;;;;;;;14.36;100.00;100695.03;5081505;28;19915;-75
2023/10/11 02:27:06;;;;;;;;;;;;;;;14.35;100.00;100688.63;5096065;28;20012;-75
2023/10/11 02:29:50;;;;;;;;;;;;;;;14.36;100.00;100689.44;5074255;28;19919;-75
2023/10/11 02:32:38;;;;;;;;;;;;;;;14.36;100.00;100676.28;5098217;28;19929;-75
2023/10/11 02:35:26;;;;;;;;;;;;;;;14.39;100.00;100672.88;5094744;28;19919;-75
2023/10/11 02:38:11;;;;;;;;;;;;;;;14.38;100.00;100668.44;5098215;28;19930;-75
2023/10/11 02:40:58;;;;;;;;;;;;;;;14.40;100.00;100668.94;5096976;28;19951;-75
2023/10/11 02:43:49;;;;;;;;;;;;;;;14.39;100.00;100660.88;5081066;28;19955;-75
2023/10/11 02:46:33;;;;;;;;;;;;;;;14.38;100.00;100662.84;5096999;28;19962;-75
2023/10/11 02:49:21;;;;;;;;;;;;;;;14.41;100.00;100656.63;5096559;28;19915;-75
2023/10/11 02:52:08;;;;;;;;;;;;;;;14.41;100.00;100656.63;5094035;28;19915;-75
2023/10/11 02:54:54;;;;;;;;;;;;;;;14.41;100.00;100647.41;5068869;28;19919;-75
2023/10/11 02:57:40;;;;;;;;;;;;;;;14.41;100.00;100647.41;5096881;28;19919;-75
2023/10/11 03:00:24;;;;;;;;;;;;;;;14.45;100.00;100640.03;5096769;28;19915;-75
2023/10/11 03:03:10;;;;;;;;;;;;;;;14.43;100.00;100629.19;5096172;28;21020;-75
2023/10/11 03:05:55;;;;;;;;;;;;;;;14.43;100.00;100620.81;5096801;28;20011;-75
2023/10/11 03:08:40;;;;;;;;;;;;;;;14.45;100.00;100624.09;5087782;28;19919;-75
2023/10/11 03:11:25;;;;;;;;;;;;;;;14.44;100.00;100627.22;5096370;28;19961;-75
2023/10/11 03:14:12;;;;;;;;;;;;;;;14.42;100.00;100629.50;5096440;28;19996;-75
2023/10/11 03:16:57;;;;;;;;;;;;;;;14.41;100.00;100633.44;5077377;28;20011;-75
2023/10/11 03:19:42;;;;;;;;;;;;;;;14.43;100.00;100647.91;5099684;28;19965;-75
2023/10/11 03:22:28;;;;;;;;;;;;;;;14.42;100.00;100652.66;5086500;28;20371;-75
2023/10/11 03:25:13;;;;;;;;;;;;;;;14.43;100.00;100650.69;5086611;28;19957;-75
2023/10/11 03:27:57;;;;;;;;;;;;;;;14.42;100.00;100644.28;5082084;28;20062;-75
2023/10/11 03:30:42;;;;;;;;;;;;;;;14.43;100.00;100647.91;5097019;28;19929;-75
2023/10/11 03:33:26;;;;;;;;;;;;;;;14.45;100.00;100646.44;5080032;28;19920;-75
2023/10/11 03:36:18;;;;;;;;;;;;;;;14.43;100.00;100648.75;5097502;28;19922;-75
2023/10/11 03:39:13;;;;;;;;;;;;;;;14.46;100.00;100648.13;5108202;28;20358;-75
2023/10/11 03:42:06;;;;;;;;;;;;;;;14.46;100.00;100647.28;5088017;28;19919;-75
2023/10/11 03:44:53;;;;;;;;;;;;;;;14.47;100.00;100655.34;5113453;28;20368;-75
2023/10/11 03:47:38;;;;;;;;;;;;;;;14.45;100.00;100663.22;5069448;28;19954;-75
2023/10/11 03:50:32;;;;;;;;;;;;;;;14.45;100.00;100654.00;5101426;28;19930;-75
2023/10/11 03:53:16;;;;;;;;;;;;;;;14.44;100.00;100649.56;5082213;28;20287;-75
2023/10/11 03:56:02;;;;;;;;;;;;;;;14.43;100.00;100637.56;5069984;28;20376;-75
2023/10/11 03:58:50;;;;;;;;;;;;;;;14.44;100.00;100655.16;5106304;28;19915;-75
2023/10/11 04:01:37;;;;;;;;;;;;;;;14.45;100.00;100645.63;5103629;28;20039;-75
2023/10/11 04:04:21;;;;;;;;;;;;;;;14.43;100.00;100637.56;5092240;28;20260;-75
2023/10/11 04:07:04;;;;;;;;;;;;;;;14.46;100.00;100636.94;5087828;28;20007;-75
2023/10/11 04:09:49;;;;;;;;;;;;;;;14.44;100.00;100636.41;5102803;28;19918;-75
2023/10/11 04:12:36;;;;;;;;;;;;;;;14.40;100.00;100627.03;5101588;28;19915;-75
2023/10/11 04:15:30;;;;;;;;;;;;;;;14.41;100.00;100628.69;5103515;28;19918;-75
2023/10/11 04:18:20;;;;;;;;;;;;;;;14.44;100.00;100632.81;5086705;28;19915;-75
2023/10/11 04:23:57;;;;;;;;;;;;;;;14.41;100.00;100637.06;5112911;28;20331;-75
2023/10/11 04:26:41;;;;;;;;;;;;;;;14.42;100.00;100641.50;5109603;28;19914;-75
2023/10/11 04:29:31;;;;;;;;;;;;;;;14.39;100.00;100647.72;5096403;28;19920;-75
2023/10/11 04:32:40;;;;;;;;;;;;;;;14.42;100.00;100654.66;5091011;28;19914;-75
2023/10/11 04:35:25;;;;;;;;;;;;;;;14.39;100.00;100656.09;5106971;28;19920;-75
2023/10/11 04:38:12;;;;;;;;;;;;;;;14.38;100.00;100648.88;5110806;28;19927;-75
2023/10/11 04:41:02;;;;;;;;;;;;;;;14.42;100.00;100649.88;5107949;28;19931;-75
2023/10/11 04:44:04;;;;;;;;;;;;;;;14.39;100.00;100650.50;5107661;28;19915;-75
2023/10/11 04:46:57;;;;;;;;;;;;;;;14.38;100.00;100657.25;5093898;28;20263;-75
2023/10/11 04:49:43;;;;;;;;;;;;;;;14.38;100.00;100670.41;5113417;28;19956;-75
2023/10/11 04:52:36;;;;;;;;;;;;;;;14.38;100.00;100679.59;5105123;28;20348;-75
2023/10/11 04:55:32;;;;;;;;;;;;;;;14.37;100.00;100677.13;5093949;28;19960;-75
2023/10/11 04:58:39;;;;;;;;;;;;;;;14.36;100.00;100670.69;5108825;28;19960;-75
2023/10/11 05:01:24;;;;;;;;;;;;;;;14.35;100.00;100666.28;5098489;28;20010;-75
2023/10/11 05:04:13;;;;;;;;;;;;;;;14.36;100.00;100656.72;5110328;28;19919;-75
2023/10/11 05:06:57;;;;;;;;;;;;;;;14.32;100.00;100655.72;5106528;28;19915;-75
2023/10/11 05:09:41;;;;;;;;;;;;;;;14.33;100.00;100651.78;5115158;28;19915;-75
2023/10/11 05:12:25;;;;;;;;;;;;;;;14.33;100.00;100649.00;5096264;28;19928;-75
2023/10/11 05:15:09;;;;;;;;;;;;;;;14.31;100.00;100654.06;5093786;28;20350;-75
2023/10/11 05:17:59;;;;;;;;;;;;;;;14.29;100.00;100659.97;5119502;28;19930;-75
2023/10/11 05:23:42;;;;;;;;;;;;;;;14.29;100.00;100656.34;5115036;28;19930;-75
2023/10/11 05:26:45;;;;;;;;;;;;;;;14.29;100.00;100653.53;5093870;28;19923;-75
2023/10/11 05:29:32;;;;;;;;;;;;;;;14.26;100.00;100655.03;5107539;28;19918;-75
2023/10/11 05:32:27;;;;;;;;;;;;;;;14.29;100.00;100650.75;5100448;27;20300;-75
2023/10/11 05:53:24;;;;;;;;;;;;;;;14.16;100.00;100641.28;5104023;28;19927;-75
2023/10/11 05:56:20;;;;;;;;;;;;;;;14.17;100.00;100633.72;5094806;28;19968;-76
2023/10/11 05:59:09;;;;;;;;;;;;;;;14.19;100.00;100628.66;5095513;28;20365;-76
2023/10/11 06:01:53;;;;;;;;;;;;;;;14.15;100.00;100620.09;5105197;28;20317;-76
2023/10/11 06:04:40;;;;;;;;;;;;;;;14.16;100.00;100623.72;5112239;28;19915;-76
2023/10/11 06:07:24;;;;;;;;;;;;;;;14.14;100.00;100620.41;5094732;28;19994;-76
2023/10/11 06:10:08;;;;;;;;;;;;;;;14.12;100.00;100620.69;5105520;28;19950;-76
2023/10/11 06:12:55;;;;;;;;;;;;;;;14.11;100.00;100629.41;5110231;28;19966;-76
2023/10/11 06:15:58;;;;;;;;;;;;;;;14.08;100.00;100625.28;5107665;28;19918;-76
2023/10/11 06:18:43;;;;;;;;;;;;;;;14.08;100.00;100633.66;5086407;28;20015;-76
2023/10/11 06:21:33;;;;;;;;;;;;;;;14.05;100.00;100629.53;5076500;28;20040;-76
2023/10/11 06:24:18;;;;;;;;;;;;;;;14.04;100.00;100636.25;5107337;28;19966;-76
2023/10/11 06:29:59;;;;;;;;;;;;;;;14.03;100.00;100640.16;5090976;28;19919;-76
2023/10/11 06:32:43;;;;;;;;;;;;;;;14.02;100.00;100644.13;5116647;28;19914;-76
2023/10/11 06:35:27;;;;;;;;;;;;;;;14.02;100.00;100640.50;5118533;28;19999;-76
2023/10/11 06:38:12;;;;;;;;;;;;;;;14.02;100.00;100637.72;5118658;28;19966;-76
2023/10/11 06:41:36;;;;;;;;;;;;;;;14.03;100.00;100633.75;5077255;28;19918;-76
2023/10/11 06:44:00;;;;;;;;;;;;;;;14.00;100.00;100639.97;5106137;28;20243;-76
2023/10/11 06:46:47;;;;;;;;;;;;;;;13.99;100.00;100638.34;5106264;28;19930;-78
2023/10/11 06:49:44;;;;;;;;;;;;;;;14.00;100.00;100634.41;5099761;28;19919;-78
2023/10/11 06:52:31;;;;;;;;;;;;;;;13.93;100.00;100628.41;5103845;28;19915;-78
2023/10/11 06:55:22;;;;;;;;;;;;;;;13.94;100.00;100633.69;5091060;28;19960;-78
2023/10/11 06:58:09;;;;;;;;;;;;;;;13.98;100.00;100633.88;5089289;28;19987;-78
2023/10/11 07:00:53;;;;;;;;;;;;;;;13.99;100.00;100636.38;5092467;28;19914;-78
2023/10/11 07:03:39;;;;;;;;;;;;;;;13.96;100.00;100639.78;5091782;28;19994;-79
2023/10/11 07:06:23;;;;;;;;;;;;;;;13.96;100.00;100645.38;5118118;28;20010;-78
2023/10/11 07:09:19;;;;;;;;;;;;;;;13.98;100.00;100643.06;5114181;28;19992;-77
2023/10/11 07:12:28;;;;;;;;;;;;;;;14.01;100.00;100650.84;5087929;28;19914;-76
2023/10/11 07:15:13;;;;;;;;;;;;;;;13.99;100.00;100658.72;5083823;28;19915;-76
2023/10/11 07:17:57;;;;;;;;;;;;;;;14.03;100.00;100664.47;5100853;28;19923;-76
2023/10/11 07:20:47;;;;;;;;;;;;;;;14.03;100.00;100673.69;5115734;28;19999;-76
2023/10/11 07:29:24;;;;;;;;;;;;;;;14.11;100.00;100680.50;5104407;28;20024;-76
2023/10/11 07:32:09;;;;;;;;;;;;;;;14.15;100.00;100686.28;5112143;28;20266;-76
2023/10/11 07:34:54;;;;;;;;;;;;;;;14.16;100.00;100691.56;5091077;28;19915;-76
2023/10/11 07:37:39;;;;;;;;;;;;;;;14.19;100.00;100687.31;5090751;28;19927;-76
2023/10/11 07:40:34;;;;;;;;;;;;;;;14.24;100.00;100690.81;5091375;28;19914;-76
2023/10/11 07:43:17;;;;;;;;;;;;;;;14.27;100.00;100689.38;5090608;28;19981;-76
2023/10/11 07:46:02;;;;;;;;;;;;;;;14.29;100.00;100679.53;5112656;28;19915;-76
2023/10/11 07:48:46;;;;;;;;;;;;;;;14.33;100.00;100685.31;5101003;28;19967;-76
2023/10/11 07:51:36;;;;;;;;;;;;;;;14.35;100.00;100679.38;5105655;28;19918;-76
2023/10/11 07:54:20;;;;;;;;;;;;;;;14.38;100.00;100679.59;5099786;28;19922;-76
2023/10/11 07:57:05;;;;;;;;;;;;;;;14.40;100.00;100677.34;5115075;28;19915;-76
2023/10/11 07:59:51;;;;;;;;;;;;;;;14.44;100.00;100680.31;5111963;28;20049;-76
2023/10/11 08:02:41;;;;;;;;;;;;;;;14.47;100.00;100686.09;5087633;28;20057;-76
2023/10/11 08:05:25;;;;;;;;;;;;;;;14.52;100.00;100688.78;5096093;28;20412;-76
2023/10/11 08:08:13;;;;;;;;;;;;;;;14.57;100.00;100687.84;5108668;28;19960;-76
2023/10/11 08:10:59;;;;;;;;;;;;;;;14.59;100.00;100679.97;5111948;28;19914;-76
2023/10/11 08:13:43;;;;;;;;;;;;;;;14.64;100.00;100682.63;5120975;28;19918;-76
2023/10/11 08:16:28;;;;;;;;;;;;;;;14.67;100.00;100692.34;5091485;28;19915;-76
2023/10/11 08:19:12;;;;;;;;;;;;;;;14.71;100.00;100701.78;5092132;28;19915;-76
2023/10/11 08:21:57;;;;;;;;;;;;;;;14.73;100.00;100693.88;5119336;28;20003;-76
2023/10/11 08:24:56;;;;;;;;;;;;;;;14.75;100.00;100700.81;5093648;28;19956;-76
2023/10/11 08:27:41;;;;;;;;;;;;;;;14.78;100.00;100687.34;5107162;28;19914;-76
2023/10/11 08:30:25;;;;;;;;;;;;;;;14.83;100.00;100684.41;5091074;28;19929;-76
2023/10/11 08:33:11;;;;;;;;;;;;;;;14.86;100.00;100680.97;5105036;28;19964;-76
2023/10/11 08:35:56;;;;;;;;;;;;;;;14.86;100.00;100690.19;5073933;28;19962;-76
2023/10/11 08:38:40;;;;;;;;;;;;;;;14.91;100.00;100692.03;5097475;28;19976;-76
2023/10/11 08:41:23;;;;;;;;;;;;;;;14.92;100.00;100694.50;5105397;28;19914;-76
2023/10/11 08:44:15;;;;;;;;;;;;;;;14.95;100.00;100693.03;5081442;28;19914;-76
2023/10/11 08:47:01;;;;;;;;;;;;;;;14.99;100.00;100691.28;5091635;28;19919;-76
2023/10/11 08:49:48;;;;;;;;;;;;;;;15.04;100.00;100685.53;5091193;28;19969;-76
2023/10/11 08:52:32;;;;;;;;;;;;;;;15.08;100.00;100680.13;5101463;28;20053;-75
2023/10/11 08:55:19;;;;;;;;;;;;;;;15.13;100.00;100682.81;5088459;28;20040;-76
2023/10/11 08:58:12;;;;;;;;;;;;;;;15.16;100.00;100682.16;5111774;28;20291;-76
2023/10/11 09:00:57;;;;;;;;;;;;;;;15.22;100.00;100686.47;5094994;28;19960;-75
2023/10/11 09:03:41;;;;;;;;;;;;;;;15.27;100.00;100691.09;5102694;28;19953;-78
2023/10/11 09:06:25;;;;;;;;;;;;;;;15.34;100.00;100683.06;5120164;28;19914;-78
2023/10/11 09:09:15;;;;;;;;;;;;;;;15.40;100.00;100679.78;5115604;28;19922;-78
2023/10/11 09:11:59;;;;;;;;;;;;;;;15.46;100.00;100671.25;5100951;28;19917;-78
2023/10/11 09:14:53;;;;;;;;;;;;;;;15.53;100.00;100661.25;5105701;28;19919;-78
2023/10/11 09:17:40;;;;;;;;;;;;;;;15.60;100.00;100660.75;5104415;28;19956;-77
2023/10/11 09:20:40;;;;;;;;;;;;;;;15.70;100.00;100662.50;5113849;28;19914;-77
2023/10/11 09:23:33;;;;;;;;;;;;;;;15.75;100.00;100660.38;5095273;28;19915;-78
2023/10/11 09:26:32;;;;;;;;;;;;;;;15.85;100.00;100654.47;5091020;28;19914;-78
2023/10/11 09:29:23;;;;;;;;;;;;;;;15.94;100.00;100657.28;5092764;28;19952;-78
2023/10/11 09:32:07;;;;;;;;;;;;;;;16.03;100.00;100666.50;5096208;27;19923;-78
2023/10/11 09:34:53;;;;;;;;;;;;;;;16.12;100.00;100660.91;5107956;28;19935;-78
2023/10/11 09:37:37;;;;;;;;;;;;;;;16.21;100.00;100667.34;5079255;28;20288;-78
2023/10/11 09:40:27;;;;;;;;;;;;;;;16.30;100.00;100671.00;5077910;28;19915;-78
2023/10/11 09:43:11;;;;;;;;;;;;;;;16.39;100.00;100681.41;5064252;28;19914;-77
2023/10/11 09:45:54;;;;;;;;;;;;;;;16.47;100.00;100674.97;5066095;28;19915;-78
2023/10/11 09:48:42;;;;;;;;;;;;;;;16.59;100.00;100677.09;5062246;28;19915;-77
2023/10/11 09:51:26;;;;;;;;;;;;;;;16.66;100.00;100683.00;5077379;28;19930;-78
2023/10/11 09:54:12;;;;;;;;;;;;;;;16.74;100.00;100683.03;5068673;28;19919;-77
2023/10/11 09:57:04;;;;;;;;;;;;;;;16.88;100.00;100682.88;5063437;28;19919;-78
2023/10/11 10:00:09;;;;;;;;;;;;;;;16.92;100.00;100681.06;5059178;28;20463;-78
2023/10/11 10:02:54;;;;;;;;;;;;;;;16.99;100.00;100677.72;5077225;28;20410;-78
2023/10/11 10:06:00;;;;;;;;;;;;;;;17.05;100.00;100679.22;5077321;28;19977;-78
2023/10/11 10:08:47;;;;;;;;;;;;;;;17.13;100.00;100680.34;5068784;28;19915;-76
2023/10/11 10:11:51;;;;;;;;;;;;;;;17.20;100.00;100681.47;5077192;28;19990;-77
2023/10/11 10:14:35;;;;;;;;;;;;;;;17.35;100.00;100670.84;5062178;28;19958;-77
2023/10/11 10:17:19;;;;;;;;;;;;;;;17.42;100.00;100659.94;5062353;28;20382;-77
2023/10/11 10:20:22;;;;;;;;;;;;;;;17.53;100.00;100663.19;5071297;28;19915;-77
2023/10/11 10:23:16;;;;;;;;;;;;;;;17.65;100.00;100657.69;5074714;28;19915;-77
2023/10/11 10:26:06;;;;;;;;;;;;;;;17.77;100.00;100659.75;5076436;28;19975;-77
2023/10/11 10:28:53;;;;;;;;;;;;;;;17.93;100.00;100657.22;5076144;28;20323;-77
2023/10/11 10:31:51;;;;;;;;;;;;;;;18.10;100.00;100648.66;5070907;28;19916;-77
2023/10/11 10:34:35;;;;;;;;;;;;;;;18.29;100.00;100660.25;5075504;28;19919;-77
2023/10/11 10:37:46;;;;;;;;;;;;;;;18.46;100.00;100648.06;5070440;28;19980;-77
2023/10/11 10:40:30;;;;;;;;;;;;;;;18.65;100.00;100638.31;5077669;28;19920;-77
2023/10/11 10:43:19;;;;;;;;;;;;;;;18.80;100.00;100640.47;5076370;28;19958;-77
2023/10/11 10:46:03;;;;;;;;;;;;;;;18.97;100.00;100640.31;5057099;28;19996;-77
2023/10/11 10:48:50;;;;;;;;;;;;;;;19.11;100.00;100631.56;5073639;28;19951;-77
2023/10/11 10:51:39;;;;;;;;;;;;;;;19.29;100.00;100634.16;5075021;28;19915;-78
2023/10/11 10:54:25;;;;;;;;;;;;;;;19.43;100.00;100618.56;5067073;28;19939;-77
2023/10/11 10:57:09;;;;;;;;;;;;;;;19.58;100.00;100616.19;5070443;28;20416;-77
2023/10/11 10:59:54;;;;;;;;;;;;;;;19.71;100.00;100605.78;5086361;28;20375;-77
2023/10/11 11:02:38;;;;;;;;;;;;;;;19.82;100.00;100613.41;5075625;28;20407;-78
2023/10/11 11:05:29;;;;;;;;;;;;;;;19.94;100.00;100600.47;5078417;28;19931;-77
2023/10/11 11:08:19;;;;;;;;;;;;;;;20.07;100.00;100593.63;5089917;28;19939;-78
2023/10/11 11:11:19;;;;;;;;;;;;;;;20.20;100.00;100600.88;5062559;28;20281;-78
2023/10/11 11:14:09;;;;;;;;;;;;;;;20.37;100.00;100604.59;5076444;28;19919;-77
2023/10/11 11:16:54;;;;;;;;;;;;;;;20.49;100.00;100608.16;5076762;28;19915;-78
2023/10/11 11:19:41;;;;;;;;;;;;;;;20.62;100.00;100606.16;5077061;28;19961;-78
2023/10/11 11:22:37;;;;;;;;;;;;;;;20.75;100.00;100606.91;5063131;28;20003;-78
2023/10/11 11:28:17;;;;;;;;;;;;;;;20.92;100.00;100617.03;5079101;28;20393;-77
2023/10/11 11:31:44;;;;;;;;;;;;;;;20.99;100.00;100614.41;5076395;28;19915;-77
2023/10/11 11:34:11;;;;;;;;;;;;;;;21.10;100.00;100611.88;5065012;28;19936;-78
2023/10/11 11:36:59;;;;;;;;;;;;;;;21.19;100.00;100613.34;5104443;28;19979;-78
2023/10/11 11:39:52;;;;;;;;;;;;;;;21.26;100.00;100603.44;5111414;28;19918;-77
2023/10/11 11:42:36;;;;;;;;;;;;;;;21.35;100.00;100575.81;5089596;28;19915;-78
2023/10/11 11:45:25;;;;;;;;;;;;;;;21.42;100.00;100588.13;5114138;28;19941;-78
2023/10/11 11:48:09;;;;;;;;;;;;;;;21.49;100.00;100583.84;5113774;28;20305;-78
2023/10/11 11:50:56;;;;;;;;;;;;;;;21.53;100.00;100571.41;5088720;28;19992;-78
2023/10/11 11:53:43;;;;;;;;;;;;;;;21.62;100.00;100576.91;5081349;28;19935;-78
2023/10/11 11:56:28;;;;;;;;;;;;;;;21.69;100.00;100559.28;5093940;28;19915;-78
2023/10/11 11:59:17;;;;;;;;;;;;;;;21.84;100.00;100547.09;5090282;28;20256;-78
2023/10/11 12:02:01;;;;;;;;;;;;;;;21.97;100.00;100550.63;5099591;28;20410;-78
2023/10/11 12:04:47;;;;;;;;;;;;;;;22.07;100.00;100533.88;5114653;28;19915;-78
2023/10/11 12:07:31;;;;;;;;;;;;;;;22.20;100.00;100537.41;5110212;28;20019;-77
2023/10/11 12:10:25;;;;;;;;;;;;;;;22.32;100.00;100533.63;5067444;28;19915;-78
2023/10/11 12:13:09;;;;;;;;;;;;;;;22.45;100.00;100526.59;5084044;28;19930;-77
2023/10/11 12:15:56;;;;;;;;;;;;;;;22.56;100.00;100525.97;5085581;28;19957;-78
2023/10/11 12:18:44;;;;;;;;;;;;;;;22.69;100.00;100513.31;5079677;28;20344;-78
2023/10/11 12:21:28;;;;;;;;;;;;;;;22.79;100.00;100509.00;5072830;28;20441;-77
2023/10/11 12:24:12;;;;;;;;;;;;;;;22.89;100.00;100503.53;5102515;28;19953;-77
2023/10/11 12:26:58;;;;;;;;;;;;;;;23.00;100.00;100488.78;5107371;28;19935;-78
2023/10/11 12:29:43;;;;;;;;;;;;;;;23.08;100.00;100485.69;5100405;28;19957;-78
2023/10/11 12:32:28;;;;;;;;;;;;;;;23.17;100.00;100480.56;5112990;28;19931;-78
2023/10/11 12:35:12;;;;;;;;;;;;;;;23.28;100.00;100477.09;5107738;28;19920;-78
2023/10/11 12:38:00;;;;;;;;;;;;;;;23.35;100.00;100478.03;5095209;28;19923;-78
2023/10/11 12:40:44;;;;;;;;;;;;;;;23.45;100.00;100481.38;5106791;28;19976;-78
2023/10/11 12:43:29;;;;;;;;;;;;;;;23.47;100.00;100473.31;5103675;28;19957;-78
2023/10/11 12:46:16;;;;;;;;;;;;;;;23.53;100.00;100471.78;5079113;28;19916;-78
2023/10/11 12:49:00;;;;;;;;;;;;;;;23.54;100.00;100479.09;5066549;28;20272;-78
2023/10/11 12:51:45;;;;;;;;;;;;;;;23.58;100.00;100468.63;5096608;28;20007;-78
2023/10/11 12:54:30;;;;;;;;;;;;;;;23.61;100.00;100468.66;5086997;28;19920;-78
2023/10/11 12:57:15;;;;;;;;;;;;;;;23.62;100.00;100461.81;5085531;28;19915;-77
2023/10/11 12:59:59;;;;;;;;;;;;;;;23.63;100.00;100451.28;5101800;28;19929;-78
2023/10/11 13:02:48;;;;;;;;;;;;;;;23.63;100.00;100456.97;5102826;28;19931;-78
2023/10/11 13:05:32;;;;;;;;;;;;;;;23.62;100.00;100446.81;5075682;28;19919;-78
2023/10/11 13:08:16;;;;;;;;;;;;;;;23.60;100.00;100441.53;5099693;28;19973;-78
2023/10/11 13:11:00;;;;;;;;;;;;;;;23.58;99.98;100443.13;5093595;28;19919;-78
2023/10/11 13:13:44;;;;;;;;;;;;;;;23.59;99.42;100447.56;5108605;28;19922;-77
2023/10/11 13:16:28;;;;;;;;;;;;;;;23.61;97.45;100433.84;5099721;28;19915;-78
2023/10/11 13:19:17;;;;;;;;;;;;;;;23.61;97.18;100433.84;5111328;28;19930;-78
2023/10/11 13:22:09;;;;;;;;;;;;;;;23.64;95.43;100433.06;5097884;28;19961;-78
2023/10/11 13:24:53;;;;;;;;;;;;;;;23.68;90.99;100439.63;5088078;28;19915;-78
2023/10/11 13:27:37;;;;;;;;;;;;;;;23.71;90.79;100438.88;5111612;28;19923;-78
2023/10/11 13:30:25;;;;;;;;;;;;;;;23.74;94.13;100431.63;5084039;28;19914;-78
2023/10/11 13:33:09;;;;;;;;;;;;;;;23.78;88.62;100424.75;5107637;28;19914;-78
2023/10/11 13:35:53;;;;;;;;;;;;;;;23.82;85.51;100428.47;5095874;28;19969;-78
2023/10/11 13:38:41;;;;;;;;;;;;;;;23.81;77.07;100431.69;5113364;28;19930;-78
2023/10/11 13:41:30;;;;;;;;;;;;;;;23.86;75.92;100434.19;5112576;28;20380;-78
2023/10/11 13:44:14;;;;;;;;;;;;;;;23.89;76.28;100435.44;5081072;28;19952;-78
2023/10/11 13:46:58;;;;;;;;;;;;;;;23.92;73.94;100431.81;5106102;28;20365;-78
2023/10/11 13:49:42;;;;;;;;;;;;;;;23.93;75.21;100436.28;5110076;28;19928;-78
2023/10/11 13:52:26;;;;;;;;;;;;;;;23.93;77.46;100436.28;5107435;28;19952;-78
2023/10/11 13:55:14;;;;;;;;;;;;;;;23.90;76.30;100429.34;5090276;28;20416;-78
2023/10/11 13:57:58;;;;;;;;;;;;;;;23.86;76.50;100428.50;5111117;28;20252;-78
2023/10/11 14:06:31;;;;;;;;;;;;;;;23.74;72.23;100425.94;5112580;28;19915;-78
2023/10/11 14:09:18;;;;;;;;;;;;;;;23.69;72.37;100434.75;5115778;27;19918;-78
2023/10/11 14:12:11;;;;;;;;;;;;;;;23.64;72.81;100427.41;5106809;28;20374;-78
2023/10/11 14:14:55;;;;;;;;;;;;;;;23.55;72.46;100435.38;5103786;28;20505;-78
2023/10/11 14:17:40;;;;;;;;;;;;;;;23.48;73.94;100430.41;5118564;28;20386;-78
2023/10/11 14:20:25;;;;;;;;;;;;;;;23.42;74.42;100421.44;5109416;28;19914;-78
2023/10/11 14:23:09;;;;;;;;;;;;;;;23.38;74.78;100419.78;5093058;28;19962;-78
2023/10/11 14:25:54;;;;;;;;;;;;;;;23.30;74.63;100418.84;5106136;28;19958;-78
2023/10/11 14:28:38;;;;;;;;;;;;;;;23.23;75.67;100418.72;5110350;28;19968;-78
2023/10/11 14:31:22;;;;;;;;;;;;;;;23.18;75.00;100410.59;5080855;27;19953;-78
2023/10/11 14:34:06;;;;;;;;;;;;;;;23.15;74.99;100405.66;5117033;28;19933;-78
2023/10/11 14:36:50;;;;;;;;;;;;;;;23.10;74.49;100394.69;5099934;28;19926;-78
2023/10/11 14:39:36;;;;;;;;;;;;;;;23.03;75.51;100386.06;5092822;28;19915;-78
2023/10/11 14:42:20;;;;;;;;;;;;;;;22.99;75.79;100388.03;5115970;28;20234;-78
2023/10/11 14:45:04;;;;;;;;;;;;;;;22.99;74.91;100390.88;5098269;28;19930;-78
2023/10/11 14:47:48;;;;;;;;;;;;;;;22.94;78.66;100398.44;5093669;28;19967;-78
2023/10/11 14:50:33;;;;;;;;;;;;;;;22.88;77.36;100391.50;5076907;28;20356;-78